createdAt,value
2023-01-07T00:02:53.165Z,82.00
2023-01-07T00:06:01.687Z,84.67
2023-01-07T00:09:07.459Z,88.67
2023-01-07T00:12:13.808Z,79.25
2023-01-07T00:15:17.772Z,30.50
2023-01-07T00:18:22.148Z,84.75
2023-01-07T00:21:27.307Z,82.25
2023-01-07T00:24:31.576Z,77.25
2023-01-07T00:27:36.759Z,100.67
2023-01-07T00:30:41.810Z,106.67
2023-01-07T00:33:52.015Z,88.00
2023-01-07T00:37:17.841Z,83.00
2023-01-07T00:40:23.865Z,85.00
2023-01-07T00:43:30.034Z,80.00
2023-01-07T00:46:35.575Z,78.00
2023-01-07T00:49:43.547Z,4.25
2023-01-07T00:52:57.036Z,83.33
2023-01-07T00:56:27.280Z,82.00
2023-01-07T00:59:35.195Z,113.33
2023-01-07T01:02:54.891Z,84.33
2023-01-07T01:06:03.572Z,74.25
2023-01-07T01:09:08.307Z,77.50
2023-01-07T01:12:14.678Z,88.75
2023-01-07T01:15:20.283Z,84.25
2023-01-07T01:18:25.547Z,87.50
2023-01-07T01:21:32.768Z,89.00
2023-01-07T01:24:37.225Z,83.75
2023-01-07T01:27:42.879Z,91.33
2023-01-07T01:30:55.800Z,84.75
2023-01-07T01:34:02.029Z,79.50
2023-01-07T01:37:05.787Z,72.50
2023-01-07T01:40:12.767Z,76.75
2023-01-07T01:43:31.277Z,73.50
2023-01-07T01:46:39.802Z,84.00
2023-01-07T01:49:51.989Z,99.33
2023-01-07T01:53:02.345Z,84.75
2023-01-07T01:56:12.278Z,78.00
2023-01-07T01:59:22.657Z,83.00
2023-01-07T02:02:34.523Z,92.00
2023-01-07T02:05:42.940Z,90.33
2023-01-07T02:08:48.235Z,80.00
2023-01-07T02:12:04.257Z,94.00
2023-01-07T02:15:13.883Z,96.67
2023-01-07T02:18:36.020Z,100.67
2023-01-07T02:21:51.986Z,99.00
2023-01-07T02:25:33.321Z,90.67
2023-01-07T02:29:03.602Z,97.00
2023-01-07T02:32:36.165Z,96.67
2023-01-07T02:35:56.912Z,95.33
2023-01-07T02:39:13.544Z,97.33
2023-01-07T02:42:26.890Z,85.00
2023-01-07T02:45:38.472Z,81.33
2023-01-07T02:48:47.592Z,98.67
2023-01-07T02:51:51.985Z,95.00
2023-01-07T02:55:00.878Z,98.67
2023-01-07T02:58:23.965Z,106.33
2023-01-07T03:01:58.790Z,102.67
2023-01-07T03:05:29.341Z,103.33
2023-01-07T03:08:55.369Z,107.33
2023-01-07T03:12:09.874Z,103.33
2023-01-07T03:15:19.193Z,93.00
2023-01-07T03:18:30.693Z,103.67
2023-01-07T03:21:40.941Z,109.67
2023-01-07T03:24:48.273Z,103.00
2023-01-07T03:27:53.451Z,101.67
2023-01-07T03:31:01.920Z,104.67
2023-01-07T03:34:09.622Z,102.33
2023-01-07T03:37:19.092Z,131.67
2023-01-07T03:40:23.862Z,110.00
2023-01-07T03:43:26.904Z,106.00
2023-01-07T03:46:35.731Z,345.75
2023-01-07T03:49:40.059Z,118.67
2023-01-07T03:52:48.917Z,105.67
2023-01-07T03:56:21.299Z,116.33
2023-01-07T03:59:25.037Z,117.00
2023-01-07T04:02:30.804Z,134.33
2023-01-07T04:05:39.342Z,120.67
2023-01-07T04:08:44.813Z,108.67
2023-01-07T04:11:49.998Z,114.33
2023-01-07T04:14:56.600Z,115.00
2023-01-07T04:18:02.784Z,113.33
2023-01-07T04:21:09.308Z,107.33
2023-01-07T04:24:14.849Z,123.33
2023-01-07T04:27:20.546Z,114.00
2023-01-07T04:30:25.659Z,108.00
2023-01-07T04:33:32.332Z,107.33
2023-01-07T04:36:37.234Z,116.33
2023-01-07T04:39:43.367Z,103.33
2023-01-07T04:42:46.989Z,117.33
2023-01-07T04:45:51.286Z,107.33
2023-01-07T04:48:55.398Z,112.00
2023-01-07T04:52:00.361Z,94.33
2023-01-07T04:55:11.109Z,109.00
2023-01-07T04:58:15.871Z,100.67
2023-01-07T05:01:19.949Z,108.67
2023-01-07T05:04:24.860Z,114.67
2023-01-07T05:07:30.269Z,102.00
2023-01-07T05:10:36.722Z,118.33
2023-01-07T05:13:41.761Z,108.33
2023-01-07T05:16:46.931Z,104.00
2023-01-07T05:19:50.988Z,29.00
2023-01-07T05:22:54.804Z,106.67
2023-01-07T05:26:00.034Z,116.67
2023-01-07T05:29:08.819Z,128.67
2023-01-07T05:32:12.971Z,106.00
2023-01-07T05:35:21.105Z,99.00
2023-01-07T05:38:25.437Z,144.75
2023-01-07T05:41:31.160Z,151.00
2023-01-07T05:44:35.905Z,127.67
2023-01-07T05:47:41.068Z,116.00
2023-01-07T05:50:46.031Z,119.33
2023-01-07T05:53:51.072Z,119.00
2023-01-07T05:56:56.367Z,168.25
2023-01-07T06:00:03.467Z,185.25
2023-01-07T06:03:16.405Z,141.00
2023-01-07T06:06:25.260Z,117.33
2023-01-07T06:09:33.872Z,119.33
2023-01-07T06:12:40.449Z,121.67
2023-01-07T06:15:44.169Z,108.67
2023-01-07T06:18:51.391Z,117.67
2023-01-07T06:21:57.741Z,124.67
2023-01-07T06:25:02.324Z,141.25
2023-01-07T06:28:09.695Z,161.75
2023-01-07T06:31:13.904Z,140.75
2023-01-07T06:34:17.829Z,156.75
2023-01-07T06:37:24.079Z,178.50
2023-01-07T06:40:28.161Z,173.25
2023-01-07T06:43:34.280Z,165.75
2023-01-07T06:46:38.586Z,153.75
2023-01-07T06:49:43.111Z,116.33
2023-01-07T06:52:49.191Z,115.00
2023-01-07T06:55:53.622Z,121.33
2023-01-07T06:58:58.780Z,147.25
2023-01-07T07:02:04.167Z,153.75
2023-01-07T07:05:08.744Z,148.75
2023-01-07T07:08:14.803Z,147.50
2023-01-07T07:11:20.577Z,163.75
2023-01-07T07:14:26.595Z,167.00
2023-01-07T07:17:30.270Z,156.00
2023-01-07T07:20:34.950Z,333.25
2023-01-07T07:23:38.657Z,238.50
2023-01-07T07:26:44.300Z,283.50
2023-01-07T07:29:49.872Z,248.00
2023-01-07T07:32:54.681Z,238.00
2023-01-07T07:35:59.963Z,258.25
2023-01-07T07:39:07.785Z,186.75
2023-01-07T07:42:11.927Z,159.25
2023-01-07T07:45:19.916Z,239.50
2023-01-07T07:48:23.815Z,282.50
2023-01-07T07:51:28.799Z,303.75
2023-01-07T07:54:33.048Z,286.75
2023-01-07T07:57:37.593Z,340.50
2023-01-07T08:01:07.711Z,315.25
2023-01-07T08:04:27.430Z,260.25
2023-01-07T08:07:33.916Z,256.00
2023-01-07T08:11:06.917Z,211.25
2023-01-07T08:14:12.019Z,261.00
2023-01-07T08:17:24.521Z,243.75
2023-01-07T08:20:30.497Z,255.00
2023-01-07T08:23:41.209Z,296.25
2023-01-07T08:26:47.128Z,285.25
2023-01-07T08:29:52.935Z,297.25
2023-01-07T08:33:01.717Z,310.50
2023-01-07T08:36:25.103Z,264.25
2023-01-07T08:39:33.444Z,258.00
2023-01-07T08:42:39.183Z,244.75
2023-01-07T08:45:52.233Z,227.50
2023-01-07T08:49:00.388Z,235.00
2023-01-07T08:52:04.768Z,240.50
2023-01-07T08:55:14.505Z,250.00
2023-01-07T08:58:21.407Z,278.75
2023-01-07T09:01:27.036Z,294.50
2023-01-07T09:04:38.312Z,313.50
2023-01-07T09:07:43.102Z,327.00
2023-01-07T09:10:52.097Z,305.75
2023-01-07T09:14:04.351Z,270.25
2023-01-07T09:17:09.713Z,334.50
2023-01-07T09:20:18.574Z,148.50
2023-01-07T09:23:22.915Z,142.75
2023-01-07T09:26:30.738Z,170.50
2023-01-07T09:29:36.532Z,278.25
2023-01-07T09:32:45.288Z,171.25
2023-01-07T09:35:55.852Z,152.75
2023-01-07T09:39:16.842Z,152.00
2023-01-07T09:42:45.602Z,141.33
2023-01-07T09:46:02.953Z,112.33
2023-01-07T09:49:19.648Z,100.67
2023-01-07T09:52:38.326Z,100.33
2023-01-07T09:56:10.623Z,111.33
2023-01-07T09:59:18.057Z,126.67
2023-01-07T10:02:45.422Z,131.67
2023-01-07T10:06:08.110Z,112.67
2023-01-07T10:09:38.804Z,98.00
2023-01-07T10:13:08.013Z,85.25
2023-01-07T10:16:22.488Z,69.50
2023-01-07T10:19:34.336Z,49.00
2023-01-07T10:22:46.631Z,38.00
2023-01-07T10:26:01.392Z,51.25
2023-01-07T10:29:23.565Z,42.75
2023-01-07T10:32:37.099Z,35.75
2023-01-07T10:35:43.552Z,24.25
2023-01-07T10:39:01.886Z,57.25
2023-01-07T10:42:19.486Z,42.25
2023-01-07T10:45:52.538Z,45.00
2023-01-07T10:49:18.866Z,35.00
2023-01-07T10:52:38.459Z,50.25
2023-01-07T10:55:52.817Z,35.75
2023-01-07T10:59:10.677Z,35.50
2023-01-07T11:02:19.554Z,36.00
2023-01-07T11:05:28.501Z,35.00
2023-01-07T11:08:43.670Z,28.50
2023-01-07T11:11:51.507Z,29.50
2023-01-07T11:15:29.201Z,30.75
2023-01-07T11:18:43.806Z,35.75
2023-01-07T11:21:52.399Z,31.00
2023-01-07T11:25:04.008Z,33.25
2023-01-07T11:28:22.185Z,45.00
2023-01-07T11:31:48.673Z,37.50
2023-01-07T11:35:12.718Z,42.00
2023-01-07T11:38:33.636Z,48.25
2023-01-07T11:41:39.210Z,39.25
2023-01-07T11:44:48.055Z,46.50
2023-01-07T11:48:19.651Z,49.25
2023-01-07T11:51:30.147Z,55.75
2023-01-07T11:54:43.573Z,41.50
2023-01-07T11:58:13.005Z,58.00
2023-01-07T12:01:24.788Z,58.00
2023-01-07T12:04:39.509Z,66.75
2023-01-07T12:07:47.751Z,56.25
2023-01-07T12:10:58.182Z,48.25
2023-01-07T12:14:15.111Z,62.75
2023-01-07T12:17:25.192Z,62.25
2023-01-07T12:20:43.892Z,56.00
2023-01-07T12:24:00.836Z,54.25
2023-01-07T12:27:21.632Z,50.00
2023-01-07T12:30:51.571Z,56.25
2023-01-07T12:34:07.774Z,58.00
2023-01-07T12:37:24.201Z,62.25
2023-01-07T12:40:39.111Z,63.75
2023-01-07T12:43:56.442Z,76.00
2023-01-07T12:47:31.939Z,74.25
2023-01-07T12:50:42.185Z,49.00
2023-01-07T12:53:54.826Z,57.25
2023-01-07T12:57:04.826Z,54.25
2023-01-07T13:00:18.146Z,43.00
2023-01-07T13:03:31.897Z,51.25
2023-01-07T13:06:45.771Z,57.00
2023-01-07T13:09:58.303Z,57.75
2023-01-07T13:13:14.778Z,63.50
2023-01-07T13:16:28.107Z,62.50
2023-01-07T13:19:33.953Z,60.00
2023-01-07T13:22:44.703Z,62.75
2023-01-07T13:26:12.557Z,52.50
2023-01-07T13:29:40.206Z,65.25
2023-01-07T13:33:00.554Z,64.75
2023-01-07T13:36:16.941Z,58.50
2023-01-07T13:39:41.975Z,65.50
2023-01-07T13:42:54.789Z,69.25
2023-01-07T13:46:04.149Z,59.00
2023-01-07T13:49:27.561Z,69.00
2023-01-07T13:52:33.895Z,67.50
2023-01-07T13:55:44.623Z,68.75
2023-01-07T13:58:53.529Z,89.75
2023-01-07T14:02:21.344Z,84.50
2023-01-07T14:05:29.010Z,74.25
2023-01-07T14:08:35.097Z,72.25
2023-01-07T14:12:09.719Z,72.50
2023-01-07T14:15:54.065Z,72.50
2023-01-07T14:19:28.340Z,75.00
2023-01-07T14:22:48.817Z,75.75
2023-01-07T14:26:25.082Z,73.25
2023-01-07T14:29:43.011Z,75.25
2023-01-07T14:32:46.831Z,80.75
2023-01-07T14:36:04.410Z,75.00
2023-01-07T14:39:33.617Z,82.25
2023-01-07T14:42:51.415Z,76.25
2023-01-07T14:45:56.672Z,88.00
2023-01-07T14:49:56.270Z,116.67
2023-01-07T14:53:30.925Z,122.67
2023-01-07T14:56:54.709Z,124.33
2023-01-07T15:00:34.921Z,92.25
2023-01-07T15:03:56.334Z,91.50
2023-01-07T15:07:06.998Z,90.25
2023-01-07T15:10:39.750Z,93.25
2023-01-07T15:14:24.046Z,85.25
2023-01-07T15:17:39.507Z,90.75
2023-01-07T15:20:59.530Z,83.00
2023-01-07T15:24:23.481Z,91.25
2023-01-07T15:27:38.830Z,75.00
2023-01-07T15:30:54.714Z,93.75
2023-01-07T15:34:18.304Z,77.25
2023-01-07T15:37:38.585Z,82.50
2023-01-07T15:40:47.975Z,101.33
2023-01-07T15:43:57.388Z,140.33
2023-01-07T15:47:04.146Z,89.75
2023-01-07T15:50:27.374Z,82.00
2023-01-07T15:53:39.801Z,80.75
2023-01-07T15:56:49.263Z,96.75
2023-01-07T15:59:59.404Z,86.75
2023-01-07T16:03:05.678Z,98.67
2023-01-07T16:06:31.612Z,86.25
2023-01-07T16:09:37.467Z,100.67
2023-01-07T16:12:43.050Z,83.00
2023-01-07T16:16:01.570Z,79.75
2023-01-07T16:19:08.989Z,74.75
2023-01-07T16:22:22.000Z,80.25
2023-01-07T16:25:34.102Z,79.75
2023-01-07T16:28:45.243Z,190.50
2023-01-07T16:32:01.835Z,92.00
2023-01-07T16:35:22.990Z,117.33
2023-01-07T16:38:42.123Z,100.67
2023-01-07T16:41:49.359Z,83.50
2023-01-07T16:45:22.791Z,87.00
2023-01-07T16:48:29.643Z,94.00
2023-01-07T16:51:39.606Z,71.75
2023-01-07T16:58:18.380Z,107.67
2023-01-07T17:01:35.651Z,99.67
2023-01-07T17:04:56.704Z,95.33
2023-01-07T17:08:08.552Z,95.67
2023-01-07T17:11:23.407Z,85.00
2023-01-07T17:14:49.898Z,77.25
2023-01-07T17:18:30.828Z,79.75
2023-01-07T17:21:44.312Z,90.25
2023-01-07T17:24:51.080Z,76.25
2023-01-07T17:28:02.811Z,77.00
2023-01-07T17:31:13.838Z,76.50
2023-01-07T17:34:28.050Z,79.25
2023-01-07T17:38:03.969Z,75.75
2023-01-07T17:41:30.838Z,87.25
2023-01-07T17:44:40.830Z,95.33
2023-01-07T17:47:46.485Z,87.25
2023-01-07T17:50:59.481Z,85.25
2023-01-07T17:54:09.567Z,82.75
2023-01-07T17:57:17.861Z,73.00
2023-01-07T18:00:25.304Z,85.50
2023-01-07T18:03:33.925Z,132.33
2023-01-07T18:06:39.162Z,162.00
2023-01-07T18:09:46.492Z,232.00
2023-01-07T18:12:54.569Z,103.33
2023-01-07T18:16:00.637Z,148.33
2023-01-07T18:19:05.895Z,68.75
2023-01-07T18:22:11.351Z,91.67
2023-01-07T18:25:24.877Z,133.67
2023-01-07T18:28:36.628Z,103.33
2023-01-07T18:31:47.383Z,89.67
2023-01-07T18:34:53.443Z,89.33
2023-01-07T18:38:02.289Z,92.67
2023-01-07T18:41:09.173Z,96.75
2023-01-07T18:44:13.315Z,93.00
2023-01-07T18:47:17.426Z,123.33
2023-01-07T18:50:22.352Z,98.33
2023-01-07T18:53:27.900Z,80.33
2023-01-07T18:56:34.991Z,102.33
2023-01-07T18:59:41.098Z,97.33
2023-01-07T19:02:47.566Z,117.67
2023-01-07T19:05:51.816Z,107.33
2023-01-07T19:09:00.376Z,175.50
2023-01-07T19:12:08.598Z,101.67
2023-01-07T19:15:18.525Z,115.33
2023-01-07T19:18:26.126Z,124.33
2023-01-07T19:21:32.321Z,170.00
2023-01-07T19:24:37.356Z,144.00
2023-01-07T19:27:46.485Z,123.00
2023-01-07T19:30:53.711Z,117.33
2023-01-07T19:33:59.781Z,134.00
2023-01-07T19:37:09.128Z,152.50
2023-01-07T19:40:17.213Z,106.00
2023-01-07T19:43:23.225Z,108.33
2023-01-07T19:46:32.876Z,105.00
2023-01-07T19:49:38.835Z,129.67
2023-01-07T19:52:44.080Z,156.00
2023-01-07T19:55:47.583Z,110.00
2023-01-07T19:58:57.676Z,98.33
2023-01-07T20:02:04.963Z,95.67
2023-01-07T20:05:16.779Z,111.67
2023-01-07T20:08:25.208Z,67.67
2023-01-07T20:11:30.884Z,89.33
2023-01-07T20:14:40.231Z,95.33
2023-01-07T20:17:44.965Z,91.00
2023-01-07T20:20:59.592Z,100.33
2023-01-07T20:24:08.393Z,105.33
2023-01-07T20:27:13.169Z,96.00
2023-01-07T20:30:18.909Z,102.33
2023-01-07T20:33:26.993Z,164.67
2023-01-07T20:36:46.144Z,103.33
2023-01-07T20:39:51.663Z,99.67
2023-01-07T20:42:56.420Z,94.67
2023-01-07T20:46:04.206Z,169.25
2023-01-07T20:49:10.727Z,97.67
2023-01-07T20:52:14.623Z,108.67
2023-01-07T20:55:21.894Z,90.67
2023-01-07T20:58:29.704Z,89.33
2023-01-07T21:01:38.196Z,85.33
2023-01-07T21:04:42.395Z,88.67
2023-01-07T21:07:48.346Z,98.33
2023-01-07T21:10:54.393Z,110.67
2023-01-07T21:14:02.072Z,181.25
2023-01-07T21:17:08.278Z,128.67
2023-01-07T21:20:16.062Z,103.33
2023-01-07T21:23:22.673Z,93.67
2023-01-07T21:26:55.009Z,96.33
2023-01-07T21:30:06.050Z,93.33
2023-01-07T21:33:24.631Z,91.00
2023-01-07T21:36:32.435Z,98.67
2023-01-07T21:39:36.567Z,103.33
2023-01-07T21:42:41.677Z,106.00
2023-01-07T21:45:46.834Z,91.00
2023-01-07T21:49:03.527Z,90.67
2023-01-07T21:52:07.523Z,101.67
2023-01-07T21:55:15.935Z,93.67
2023-01-07T21:58:29.542Z,110.33
2023-01-07T22:01:33.171Z,90.33
2023-01-07T22:04:40.891Z,94.33
2023-01-07T22:07:46.489Z,95.00
2023-01-07T22:10:50.255Z,103.67
2023-01-07T22:14:00.945Z,66.33
2023-01-07T22:17:17.058Z,107.00
2023-01-07T22:20:22.215Z,177.75
2023-01-07T22:23:26.524Z,167.50
2023-01-07T22:26:31.736Z,151.25
2023-01-07T22:29:38.658Z,108.00
2023-01-07T22:32:42.735Z,113.67
2023-01-07T22:35:50.170Z,108.67
2023-01-07T22:38:58.928Z,111.00
2023-01-07T22:42:10.835Z,123.67
2023-01-07T22:45:21.753Z,112.67
2023-01-07T22:48:28.688Z,111.33
2023-01-07T22:51:43.791Z,125.67
2023-01-07T22:54:50.964Z,129.33
2023-01-07T22:57:55.605Z,101.67
2023-01-07T23:01:13.051Z,119.33
2023-01-07T23:04:19.764Z,116.00
2023-01-07T23:07:25.069Z,108.67
2023-01-07T23:10:30.059Z,100.00
2023-01-07T23:13:35.659Z,113.67
2023-01-07T23:16:40.437Z,118.00
2023-01-07T23:19:48.762Z,114.67
2023-01-07T23:22:53.792Z,95.67
2023-01-07T23:25:59.153Z,116.33
2023-01-07T23:29:07.267Z,121.33
2023-01-07T23:32:20.256Z,119.67
2023-01-07T23:35:24.989Z,108.33
2023-01-07T23:38:30.863Z,146.75
2023-01-07T23:41:37.376Z,120.67
2023-01-07T23:44:41.480Z,123.00
2023-01-07T23:47:47.498Z,130.67
2023-01-07T23:50:52.105Z,150.67
2023-01-07T23:53:58.771Z,114.00
2023-01-07T23:57:03.947Z,113.33
